createdAt,value
2018-07-14T00:01:39.028Z,3.70
2018-07-14T00:04:06.727Z,4.03
2018-07-14T00:06:34.422Z,3.70
2018-07-14T00:09:02.075Z,3.80
2018-07-14T00:11:29.709Z,3.40
2018-07-14T00:13:57.349Z,3.83
2018-07-14T00:16:25.440Z,4.07
2018-07-14T00:18:53.104Z,3.57
2018-07-14T00:21:20.730Z,3.33
2018-07-14T00:23:48.399Z,3.27
2018-07-14T00:26:19.082Z,3.40
2018-07-14T00:28:47.206Z,3.33
2018-07-14T00:31:14.954Z,3.50
2018-07-14T00:33:42.617Z,3.23
2018-07-14T00:36:10.206Z,3.10
2018-07-14T00:38:37.858Z,2.90
2018-07-14T00:41:05.471Z,3.90
2018-07-14T00:43:33.124Z,3.20
2018-07-14T00:46:00.729Z,3.83
2018-07-14T00:48:28.321Z,3.63
2018-07-14T00:50:55.983Z,3.43
2018-07-14T00:53:23.559Z,4.20
2018-07-14T00:55:51.216Z,3.53
2018-07-14T00:58:18.866Z,3.20
2018-07-14T01:00:46.541Z,3.87
2018-07-14T01:03:14.161Z,2.87
2018-07-14T01:05:41.751Z,4.83
2018-07-14T01:08:09.427Z,3.63
2018-07-14T01:10:37.152Z,3.73
2018-07-14T01:13:04.859Z,3.80
2018-07-14T01:15:32.494Z,3.77
2018-07-14T01:18:00.059Z,3.33
2018-07-14T01:20:27.715Z,4.20
2018-07-14T01:22:55.301Z,3.80
2018-07-14T01:25:22.863Z,3.13
2018-07-14T01:27:50.417Z,3.80
2018-07-14T01:30:18.105Z,3.77
2018-07-14T01:32:45.689Z,3.50
2018-07-14T01:35:13.294Z,4.07
2018-07-14T01:37:40.864Z,3.43
2018-07-14T01:40:08.494Z,4.37
2018-07-14T01:42:36.186Z,3.80
2018-07-14T01:45:03.894Z,3.20
2018-07-14T01:47:31.538Z,3.50
2018-07-14T01:49:59.086Z,3.70
2018-07-14T01:52:26.817Z,3.53
2018-07-14T01:54:54.513Z,4.00
2018-07-14T01:57:22.098Z,3.67
2018-07-14T01:59:49.709Z,3.67
2018-07-14T02:02:17.380Z,3.93
2018-07-14T02:04:45.083Z,3.60
2018-07-14T02:07:12.779Z,4.00
2018-07-14T02:09:40.396Z,3.53
2018-07-14T02:12:08.406Z,4.00
2018-07-14T02:14:35.989Z,3.47
2018-07-14T02:17:03.715Z,4.10
2018-07-14T02:19:31.282Z,3.90
2018-07-14T02:21:58.866Z,3.80
2018-07-14T02:24:26.438Z,3.60
2018-07-14T02:26:54.124Z,4.27
2018-07-14T02:29:21.691Z,3.80
2018-07-14T02:31:49.433Z,4.13
2018-07-14T02:34:17.017Z,4.33
2018-07-14T02:36:44.666Z,4.23
2018-07-14T02:39:12.330Z,3.53
2018-07-14T02:41:39.901Z,4.00
2018-07-14T02:44:07.580Z,3.50
2018-07-14T02:46:35.227Z,4.00
2018-07-14T02:49:02.862Z,3.60
2018-07-14T02:51:30.528Z,3.67
2018-07-14T02:53:58.139Z,3.50
2018-07-14T02:56:25.842Z,3.40
2018-07-14T02:58:53.583Z,3.83
2018-07-14T03:01:21.175Z,3.97
2018-07-14T03:03:48.854Z,3.90
2018-07-14T03:06:16.420Z,4.47
2018-07-14T03:08:44.031Z,3.83
2018-07-14T03:11:11.679Z,3.70
2018-07-14T03:13:39.259Z,4.40
2018-07-14T03:16:06.903Z,3.80
2018-07-14T03:18:34.499Z,4.20
2018-07-14T03:21:02.098Z,4.67
2018-07-14T03:23:29.724Z,4.40
2018-07-14T03:25:57.336Z,4.37
2018-07-14T03:28:24.945Z,4.17
2018-07-14T03:30:52.606Z,4.37
2018-07-14T03:33:20.239Z,4.10
2018-07-14T03:35:47.841Z,4.03
2018-07-14T03:38:15.419Z,4.00
2018-07-14T03:40:44.043Z,3.60
2018-07-14T03:43:11.662Z,3.73
2018-07-14T03:45:39.290Z,3.93
2018-07-14T03:48:07.017Z,4.00
2018-07-14T03:50:34.646Z,4.00
2018-07-14T03:53:02.254Z,3.90
2018-07-14T03:55:29.843Z,3.87
2018-07-14T03:57:57.488Z,3.97
2018-07-14T04:00:25.090Z,3.83
2018-07-14T04:02:52.720Z,4.10
2018-07-14T04:05:20.318Z,4.10
2018-07-14T04:07:47.901Z,3.70
2018-07-14T04:10:35.164Z,3.43
2018-07-14T04:13:02.883Z,3.53
2018-07-14T04:15:30.492Z,4.23
2018-07-14T04:18:03.662Z,3.20
2018-07-14T04:20:31.810Z,3.43
2018-07-14T04:22:59.897Z,3.90
2018-07-14T04:25:27.466Z,4.10
2018-07-14T04:27:55.211Z,4.40
2018-07-14T04:30:22.770Z,3.80
2018-07-14T04:32:50.513Z,3.63
2018-07-14T04:35:18.202Z,3.43
2018-07-14T04:37:45.770Z,3.53
2018-07-14T04:40:13.389Z,3.60
2018-07-14T04:42:41.050Z,3.90
2018-07-14T04:45:08.631Z,4.20
2018-07-14T04:47:36.283Z,3.57
2018-07-14T04:50:03.887Z,4.20
2018-07-14T04:52:31.499Z,3.30
2018-07-14T04:54:59.174Z,3.80
2018-07-14T04:57:26.757Z,3.80
2018-07-14T04:59:54.355Z,3.70
2018-07-14T05:02:22.050Z,3.40
2018-07-14T05:04:49.674Z,3.73
2018-07-14T05:07:17.261Z,3.93
2018-07-14T05:09:44.884Z,4.33
2018-07-14T05:12:12.518Z,3.60
2018-07-14T05:14:40.078Z,3.53
2018-07-14T05:17:07.752Z,3.70
2018-07-14T05:19:35.400Z,3.70
2018-07-14T05:22:03.287Z,4.13
2018-07-14T05:24:30.917Z,4.00
2018-07-14T05:26:58.473Z,3.10
2018-07-14T05:29:26.192Z,4.40
2018-07-14T05:31:53.798Z,3.80
2018-07-14T05:34:21.463Z,4.07
2018-07-14T05:36:49.126Z,3.80
2018-07-14T05:39:16.942Z,3.40
2018-07-14T05:41:44.507Z,3.93
2018-07-14T05:44:12.106Z,3.10
2018-07-14T05:46:39.806Z,3.70
2018-07-14T05:49:07.495Z,3.77
2018-07-14T05:51:35.085Z,3.67
2018-07-14T05:54:02.718Z,3.47
2018-07-14T05:56:30.295Z,4.37
2018-07-14T05:58:58.065Z,3.27
2018-07-14T06:01:25.739Z,3.20
2018-07-14T06:03:53.492Z,3.90
2018-07-14T06:06:21.106Z,3.20
2018-07-14T06:08:48.837Z,3.37
2018-07-14T06:11:16.674Z,3.87
2018-07-14T06:13:44.491Z,3.30
2018-07-14T06:16:12.148Z,3.17
2018-07-14T06:18:39.832Z,3.00
2018-07-14T06:21:07.481Z,3.60
2018-07-14T06:23:35.141Z,3.67
2018-07-14T06:26:02.716Z,3.17
2018-07-14T06:28:30.342Z,3.60
2018-07-14T06:30:58.044Z,3.50
2018-07-14T06:33:25.643Z,3.30
2018-07-14T06:35:53.383Z,3.40
2018-07-14T06:38:21.053Z,3.30
2018-07-14T06:40:48.687Z,3.50
2018-07-14T06:43:16.406Z,3.00
2018-07-14T06:45:44.006Z,3.10
2018-07-14T06:48:11.635Z,4.07
2018-07-14T06:50:39.314Z,3.30
2018-07-14T06:53:06.906Z,3.80
2018-07-14T06:55:34.563Z,3.73
2018-07-14T06:58:02.169Z,3.90
2018-07-14T07:00:29.872Z,3.73
2018-07-14T07:02:57.590Z,3.73
2018-07-14T07:05:25.205Z,3.60
2018-07-14T07:07:52.870Z,3.40
2018-07-14T07:10:37.230Z,4.43
2018-07-14T07:13:04.886Z,3.83
2018-07-14T07:15:32.586Z,4.60
2018-07-14T07:18:00.198Z,3.97
2018-07-14T07:20:27.899Z,4.80
2018-07-14T07:22:55.705Z,4.33
2018-07-14T07:25:24.175Z,4.40
2018-07-14T07:27:52.147Z,4.80
2018-07-14T07:30:19.811Z,5.00
2018-07-14T07:32:55.283Z,5.27
2018-07-14T07:35:22.967Z,4.67
2018-07-14T07:37:50.557Z,5.00
2018-07-14T07:40:18.183Z,5.23
2018-07-14T07:42:45.893Z,3.87
2018-07-14T07:45:13.519Z,4.67
2018-07-14T07:47:41.170Z,4.20
2018-07-14T07:50:08.794Z,3.93
2018-07-14T07:52:37.149Z,5.83
2018-07-14T07:55:04.830Z,4.90
2018-07-14T07:57:32.601Z,4.17
2018-07-14T08:00:00.211Z,4.47
2018-07-14T08:02:27.807Z,4.23
2018-07-14T08:04:55.426Z,5.07
2018-07-14T08:07:23.046Z,3.93
2018-07-14T08:09:50.658Z,5.10
2018-07-14T08:12:18.362Z,4.07
2018-07-14T08:14:45.975Z,4.03
2018-07-14T08:17:13.663Z,4.07
2018-07-14T08:19:41.313Z,3.47
2018-07-14T08:22:09.014Z,4.07
2018-07-14T08:24:36.741Z,4.10
2018-07-14T08:27:04.636Z,4.07
2018-07-14T08:29:32.266Z,3.80
2018-07-14T08:31:59.905Z,4.03
2018-07-14T08:34:27.456Z,3.77
2018-07-14T08:36:55.074Z,4.10
2018-07-14T08:39:22.751Z,3.43
2018-07-14T08:41:50.374Z,4.03
2018-07-14T08:44:18.069Z,3.57
2018-07-14T08:46:45.662Z,3.73
2018-07-14T08:49:20.222Z,4.20
2018-07-14T08:51:47.870Z,4.27
2018-07-14T08:54:15.635Z,3.43
2018-07-14T08:56:43.311Z,3.97
2018-07-14T08:59:10.902Z,4.13
2018-07-14T09:01:38.526Z,3.37
2018-07-14T09:04:06.214Z,3.73
2018-07-14T09:06:33.790Z,4.00
2018-07-14T09:09:01.451Z,3.47
2018-07-14T09:11:29.090Z,3.90
2018-07-14T09:13:56.751Z,3.60
2018-07-14T09:16:24.448Z,3.37
2018-07-14T09:18:51.993Z,3.20
2018-07-14T09:21:19.715Z,3.37
2018-07-14T09:23:47.389Z,3.30
2018-07-14T09:26:15.213Z,3.40
2018-07-14T09:28:42.817Z,3.73
2018-07-14T09:31:10.454Z,3.40
2018-07-14T09:33:38.098Z,3.53
2018-07-14T09:36:05.805Z,4.00
2018-07-14T09:38:33.372Z,3.90
2018-07-14T09:41:01.067Z,3.50
2018-07-14T09:43:28.678Z,3.90
2018-07-14T09:45:56.365Z,3.60
2018-07-14T09:48:23.965Z,4.47
2018-07-14T09:50:51.675Z,3.83
2018-07-14T09:53:19.444Z,3.50
2018-07-14T09:55:47.251Z,4.20
2018-07-14T09:58:17.019Z,4.30
2018-07-14T10:00:50.478Z,3.50
2018-07-14T10:03:18.225Z,4.07
2018-07-14T10:05:45.843Z,3.70
2018-07-14T10:08:13.504Z,3.80
2018-07-14T10:10:41.137Z,3.73
2018-07-14T10:13:08.859Z,3.50
2018-07-14T10:15:36.530Z,3.60
2018-07-14T10:18:04.170Z,4.07
2018-07-14T10:20:31.793Z,4.30
2018-07-14T10:22:59.487Z,3.70
2018-07-14T10:25:27.090Z,4.20
2018-07-14T10:27:54.698Z,4.00
2018-07-14T10:30:22.351Z,4.47
2018-07-14T10:32:50.068Z,3.73
2018-07-14T10:35:17.815Z,3.87
2018-07-14T10:37:45.461Z,3.63
2018-07-14T10:40:13.159Z,3.80
2018-07-14T10:42:40.870Z,3.83
2018-07-14T10:45:08.657Z,4.10
2018-07-14T10:47:36.370Z,3.60
2018-07-14T10:50:03.974Z,3.63
2018-07-14T10:52:31.694Z,3.47
2018-07-14T10:54:59.577Z,3.90
2018-07-14T10:57:27.246Z,3.77
2018-07-14T10:59:54.898Z,4.17
2018-07-14T11:02:22.494Z,3.67
2018-07-14T11:04:50.183Z,3.80
2018-07-14T11:07:17.802Z,3.40
2018-07-14T11:09:45.534Z,4.00
2018-07-14T11:12:13.287Z,3.60
2018-07-14T11:14:40.842Z,3.20
2018-07-14T11:17:08.575Z,4.00
2018-07-14T11:19:36.268Z,3.50
2018-07-14T11:22:03.945Z,3.40
2018-07-14T11:24:31.698Z,3.37
2018-07-14T11:26:59.321Z,3.70
2018-07-14T11:29:27.013Z,3.67
2018-07-14T11:31:54.602Z,3.63
2018-07-14T11:34:22.259Z,3.77
2018-07-14T11:36:50.278Z,3.57
2018-07-14T11:39:17.892Z,3.93
2018-07-14T11:41:45.590Z,4.73
2018-07-14T11:44:13.398Z,3.30
2018-07-14T11:46:40.990Z,4.67
2018-07-14T11:49:08.708Z,3.93
2018-07-14T11:51:36.358Z,4.00
2018-07-14T11:54:04.105Z,3.90
2018-07-14T11:56:32.330Z,4.23
2018-07-14T11:58:59.940Z,6.37
2018-07-14T12:01:27.930Z,7.37
2018-07-14T12:03:55.610Z,6.70
2018-07-14T12:06:23.220Z,6.43
2018-07-14T12:08:50.826Z,3.83
2018-07-14T12:11:18.490Z,2.70
2018-07-14T12:13:46.113Z,2.77
2018-07-14T12:16:13.897Z,2.43
2018-07-14T12:18:41.505Z,2.63
2018-07-14T12:21:09.141Z,2.77
2018-07-14T12:23:36.735Z,2.55
2018-07-14T12:26:04.573Z,2.85
2018-07-14T12:31:06.719Z,2.20
2018-07-14T12:33:34.437Z,2.10
2018-07-14T12:36:02.131Z,2.33
2018-07-14T12:38:29.758Z,2.22
2018-07-14T12:40:57.414Z,1.75
2018-07-14T12:43:25.020Z,2.47
2018-07-14T12:45:52.590Z,2.33
2018-07-14T12:48:20.274Z,2.50
2018-07-14T12:50:47.897Z,2.00
2018-07-14T12:53:15.625Z,2.35
2018-07-14T12:55:43.267Z,2.10
2018-07-14T12:58:10.934Z,2.08
2018-07-14T13:00:38.573Z,2.58
2018-07-14T13:03:06.199Z,2.60
2018-07-14T13:05:33.842Z,2.33
2018-07-14T13:08:01.465Z,2.20
2018-07-14T13:10:35.790Z,2.62
2018-07-14T13:13:03.487Z,2.27
2018-07-14T13:15:31.078Z,2.10
2018-07-14T13:17:58.810Z,2.65
2018-07-14T13:20:26.425Z,2.40
2018-07-14T13:22:54.179Z,2.52
2018-07-14T13:25:21.877Z,2.70
2018-07-14T13:27:49.586Z,2.40
2018-07-14T13:30:17.394Z,2.55
2018-07-14T13:32:44.978Z,2.17
2018-07-14T13:35:12.565Z,2.45
2018-07-14T13:37:40.179Z,2.20
2018-07-14T13:40:14.654Z,2.25
2018-07-14T13:42:42.281Z,2.42
2018-07-14T13:45:13.058Z,2.20
2018-07-14T13:47:40.852Z,2.40
2018-07-14T13:50:08.562Z,2.27
2018-07-14T13:52:36.195Z,2.55
2018-07-14T13:55:03.914Z,2.10
2018-07-14T13:57:31.653Z,2.23
2018-07-14T13:59:59.282Z,2.40
2018-07-14T14:02:26.891Z,3.40
2018-07-14T14:04:54.662Z,2.60
2018-07-14T14:07:22.377Z,2.30
2018-07-14T14:09:50.056Z,2.50
2018-07-14T14:12:17.756Z,2.30
2018-07-14T14:14:46.326Z,2.70
2018-07-14T14:17:13.982Z,2.70
2018-07-14T14:19:41.585Z,2.53
2018-07-14T14:22:09.302Z,2.63
2018-07-14T14:24:36.934Z,2.40
2018-07-14T14:27:04.704Z,2.50
2018-07-14T14:29:32.373Z,2.50
2018-07-14T14:32:00.098Z,2.50
2018-07-14T14:34:27.707Z,2.73
2018-07-14T14:36:55.331Z,2.50
2018-07-14T14:39:22.938Z,3.10
2018-07-14T14:41:50.610Z,2.60
2018-07-14T14:44:18.272Z,2.77
2018-07-14T14:46:45.872Z,2.87
2018-07-14T14:49:13.561Z,2.20
2018-07-14T14:51:41.215Z,2.67
2018-07-14T14:54:08.818Z,3.20
2018-07-14T14:56:36.435Z,2.50
2018-07-14T14:59:04.046Z,2.70
2018-07-14T15:01:31.679Z,2.20
2018-07-14T15:03:59.294Z,2.20
2018-07-14T15:06:27.010Z,2.40
2018-07-14T15:08:54.610Z,2.63
2018-07-14T15:11:22.345Z,2.10
2018-07-14T15:13:50.026Z,2.70
2018-07-14T15:16:17.639Z,2.10
2018-07-14T15:18:45.246Z,2.50
2018-07-14T15:21:12.881Z,2.20
2018-07-14T15:23:40.507Z,2.67
2018-07-14T15:26:08.187Z,2.50
2018-07-14T15:28:35.889Z,2.30
2018-07-14T15:31:03.515Z,2.27
2018-07-14T15:33:31.177Z,2.50
2018-07-14T15:35:58.808Z,2.40
2018-07-14T15:38:26.404Z,2.40
2018-07-14T15:40:54.116Z,2.30
2018-07-14T15:43:21.755Z,2.10
2018-07-14T15:45:49.385Z,2.40
2018-07-14T15:48:16.991Z,2.70
2018-07-14T15:50:44.563Z,2.43
2018-07-14T15:53:12.257Z,2.00
2018-07-14T15:55:39.834Z,2.27
2018-07-14T15:58:07.529Z,2.07
2018-07-14T16:00:35.121Z,2.20
2018-07-14T16:03:02.724Z,2.10
2018-07-14T16:05:30.398Z,2.30
2018-07-14T16:07:58.067Z,2.63
2018-07-14T16:10:35.683Z,2.30
2018-07-14T16:13:03.594Z,2.33
2018-07-14T16:15:31.231Z,2.60
2018-07-14T16:17:58.954Z,2.90
2018-07-14T16:20:26.642Z,2.37
2018-07-14T16:22:54.223Z,2.70
2018-07-14T16:25:22.058Z,2.40
2018-07-14T16:27:49.694Z,2.37
2018-07-14T16:30:17.381Z,2.43
2018-07-14T16:32:45.098Z,2.57
2018-07-14T16:35:12.832Z,2.63
2018-07-14T16:37:40.768Z,2.73
2018-07-14T16:40:08.435Z,2.80
2018-07-14T16:42:36.035Z,3.13
2018-07-14T16:45:04.638Z,3.00
2018-07-14T16:47:32.246Z,3.07
2018-07-14T16:49:59.949Z,3.33
2018-07-14T16:52:27.498Z,4.13
2018-07-14T16:54:55.109Z,3.40
2018-07-14T16:57:23.023Z,2.90
2018-07-14T16:59:50.715Z,3.10
2018-07-14T17:02:18.300Z,2.90
2018-07-14T17:04:45.954Z,3.10
2018-07-14T17:07:13.766Z,3.30
2018-07-14T17:09:41.413Z,3.57
2018-07-14T17:12:09.180Z,3.50
2018-07-14T17:14:36.767Z,3.80
2018-07-14T17:17:04.642Z,3.47
2018-07-14T17:19:32.365Z,3.10
2018-07-14T17:22:00.318Z,2.83
2018-07-14T17:24:28.022Z,3.07
2018-07-14T17:26:56.027Z,3.33
2018-07-14T17:29:24.698Z,3.00
2018-07-14T17:31:52.603Z,3.23
2018-07-14T17:34:20.561Z,3.20
2018-07-14T17:36:48.325Z,3.10
2018-07-14T17:39:15.923Z,3.00
2018-07-14T17:41:43.889Z,2.63
2018-07-14T17:44:12.303Z,3.57
2018-07-14T17:46:41.266Z,3.70
2018-07-14T17:49:08.927Z,3.37
2018-07-14T17:51:36.650Z,3.30
2018-07-14T17:54:05.599Z,2.90
2018-07-14T17:56:33.366Z,3.07
2018-07-14T17:59:02.279Z,3.50
2018-07-14T18:01:33.878Z,3.27
2018-07-14T18:04:01.753Z,2.97
2018-07-14T18:06:30.107Z,3.37
2018-07-14T18:08:57.894Z,3.07
2018-07-14T18:11:26.602Z,2.73
2018-07-14T18:13:54.736Z,3.37
2018-07-14T18:16:23.026Z,3.43
2018-07-14T18:18:50.851Z,3.27
2018-07-14T18:21:18.896Z,3.90
2018-07-14T18:23:46.707Z,3.43
2018-07-14T18:26:14.768Z,2.90
2018-07-14T18:28:44.703Z,3.33
2018-07-14T18:31:12.790Z,3.50
2018-07-14T18:33:41.133Z,3.80
2018-07-14T18:36:09.641Z,3.37
2018-07-14T18:38:37.629Z,3.27
2018-07-14T18:41:05.458Z,3.63
2018-07-14T18:43:33.090Z,3.57
2018-07-14T18:46:00.882Z,3.77
2018-07-14T18:48:28.630Z,3.10
2018-07-14T18:50:56.769Z,3.73
2018-07-14T18:53:25.008Z,3.70
2018-07-14T18:55:52.607Z,3.30
2018-07-14T18:58:20.352Z,3.30
2018-07-14T19:00:47.990Z,3.60
2018-07-14T19:03:15.847Z,3.10
2018-07-14T19:05:43.624Z,3.50
2018-07-14T19:08:11.246Z,3.67
2018-07-14T19:10:39.442Z,3.07
2018-07-14T19:13:07.475Z,3.40
2018-07-14T19:15:35.319Z,3.20
2018-07-14T19:18:03.686Z,3.07
2018-07-14T19:20:31.385Z,2.90
2018-07-14T19:22:58.972Z,3.67
2018-07-14T19:25:27.181Z,3.57
2018-07-14T19:27:54.854Z,3.53
2018-07-14T19:30:23.010Z,3.90
2018-07-14T19:32:50.647Z,3.80
2018-07-14T19:35:18.378Z,3.73
2018-07-14T19:37:46.058Z,3.67
2018-07-14T19:40:13.698Z,3.40
2018-07-14T19:42:41.320Z,3.80
2018-07-14T19:45:09.214Z,3.80
2018-07-14T19:47:36.810Z,4.20
2018-07-14T19:50:04.530Z,4.43
2018-07-14T19:52:32.269Z,4.20
2018-07-14T19:54:59.923Z,3.90
2018-07-14T19:57:27.659Z,4.37
2018-07-14T19:59:55.274Z,4.10
2018-07-14T20:02:22.937Z,4.20
2018-07-14T20:04:50.595Z,4.73
2018-07-14T20:07:18.299Z,4.43
2018-07-14T20:09:45.917Z,5.07
2018-07-14T20:12:13.528Z,4.60
2018-07-14T20:14:41.154Z,4.80
2018-07-14T20:17:08.811Z,4.27
2018-07-14T20:19:36.428Z,4.10
2018-07-14T20:22:04.183Z,4.40
2018-07-14T20:24:31.892Z,4.43
2018-07-14T20:26:59.562Z,4.57
2018-07-14T20:29:27.158Z,4.33
2018-07-14T20:31:54.762Z,4.30
2018-07-14T20:34:22.523Z,4.70
2018-07-14T20:36:50.272Z,5.57
2018-07-14T20:39:17.849Z,4.37
2018-07-14T20:41:45.683Z,4.30
2018-07-14T20:44:13.255Z,4.33
2018-07-14T20:46:41.575Z,4.40
2018-07-14T20:49:09.231Z,4.40
2018-07-14T20:51:36.924Z,4.67
2018-07-14T20:54:05.313Z,4.63
2018-07-14T20:56:32.938Z,4.77
2018-07-14T20:59:00.710Z,4.10
2018-07-14T21:01:28.357Z,3.83
2018-07-14T21:03:55.979Z,3.93
2018-07-14T21:06:23.738Z,4.00
2018-07-14T21:08:51.382Z,4.53
2018-07-14T21:11:19.026Z,4.17
2018-07-14T21:13:46.704Z,3.83
2018-07-14T21:16:14.340Z,4.00
2018-07-14T21:18:42.145Z,4.13
2018-07-14T21:21:09.831Z,3.90
2018-07-14T21:23:37.334Z,3.10
2018-07-14T21:26:05.015Z,4.33
2018-07-14T21:28:32.629Z,3.63
2018-07-14T21:31:00.470Z,3.57
2018-07-14T21:33:28.178Z,3.90
2018-07-14T21:35:55.779Z,4.00
2018-07-14T21:38:23.447Z,4.13
2018-07-14T21:40:51.050Z,3.93
2018-07-14T21:43:18.649Z,3.50
2018-07-14T21:45:46.275Z,3.27
2018-07-14T21:48:13.846Z,3.50
2018-07-14T21:50:41.536Z,3.13
2018-07-14T21:53:09.184Z,3.70
2018-07-14T21:55:36.778Z,3.50
2018-07-14T21:58:04.418Z,3.70
2018-07-14T22:00:37.930Z,3.60
2018-07-14T22:03:06.486Z,3.70
2018-07-14T22:05:34.160Z,3.90
2018-07-14T22:08:01.799Z,3.43
2018-07-14T22:10:36.331Z,4.20
2018-07-14T22:13:03.958Z,3.43
2018-07-14T22:15:31.564Z,3.47
2018-07-14T22:17:59.202Z,3.67
2018-07-14T22:20:26.842Z,3.90
2018-07-14T22:22:54.454Z,3.37
2018-07-14T22:25:22.258Z,3.67
2018-07-14T22:27:49.877Z,3.10
2018-07-14T22:30:17.530Z,3.73
2018-07-14T22:32:45.195Z,3.63
2018-07-14T22:35:12.889Z,3.63
2018-07-14T22:37:40.526Z,3.90
2018-07-14T22:40:08.185Z,4.37
2018-07-14T22:42:35.862Z,4.17
2018-07-14T22:45:03.761Z,4.10
2018-07-14T22:47:31.370Z,3.97
2018-07-14T22:49:59.082Z,3.83
2018-07-14T22:52:26.705Z,3.50
2018-07-14T22:54:54.360Z,3.50
2018-07-14T22:57:22.023Z,3.50
2018-07-14T22:59:49.606Z,3.37
2018-07-14T23:02:17.233Z,3.50
2018-07-14T23:04:44.794Z,3.80
2018-07-14T23:07:12.824Z,3.90
2018-07-14T23:09:41.789Z,3.70
2018-07-14T23:12:09.421Z,3.80
2018-07-14T23:14:36.995Z,3.47
2018-07-14T23:17:04.663Z,4.07
2018-07-14T23:19:32.212Z,4.60
2018-07-14T23:21:59.877Z,4.13
2018-07-14T23:24:27.770Z,4.03
2018-07-14T23:26:55.358Z,5.00
2018-07-14T23:29:23.077Z,3.90
2018-07-14T23:31:50.657Z,4.00
2018-07-14T23:34:18.256Z,4.97
2018-07-14T23:36:45.926Z,4.17
2018-07-14T23:39:13.590Z,4.20
2018-07-14T23:41:41.250Z,4.07
2018-07-14T23:44:08.827Z,4.17
2018-07-14T23:46:36.474Z,4.17
2018-07-14T23:49:04.216Z,4.30
2018-07-14T23:51:31.794Z,4.10
2018-07-14T23:53:59.533Z,4.37
2018-07-14T23:56:27.098Z,3.80
2018-07-14T23:58:54.682Z,4.33
